Time;durP1;ratioP1;P1;durP2;ratioP2;P2;SDS_P1;SDS_P2;PMS_P1;PMS_P2;Temp;Humidity;BMP_temperature;BMP_pressure;BME280_temperature;BME280_humidity;BME280_pressure;Samples;Min_cycle;Max_cycle;Signal;HPM_P1;HPM_P2
2021/04/03 00:01:27;;;;;;;16.60;10.55;;;;;;;9.20;73.42;100853.70;1749563;82;21945;-73
2021/04/03 00:04:00;;;;;;;12.43;9.73;;;;;;;9.21;73.34;100852.60;1749797;82;21249;-72
2021/04/03 00:06:33;;;;;;;15.13;8.95;;;;;;;9.21;73.22;100843.44;1749621;82;21253;-73
2021/04/03 00:09:07;;;;;;;17.27;8.95;;;;;;;9.16;73.18;100842.80;1749517;80;21190;-73
2021/04/03 00:11:41;;;;;;;13.48;8.75;;;;;;;9.12;73.18;100839.41;1749369;81;21183;-71
2021/04/03 00:14:14;;;;;;;;;;;;;;;9.10;73.33;100843.80;1751987;82;21175;-73
2021/04/03 00:16:47;;;;;;;11.63;8.15;;;;;;;9.07;73.30;100848.42;1749371;82;20230;-74
2021/04/03 00:19:21;;;;;;;13.93;8.30;;;;;;;9.08;73.43;100850.13;1749484;82;21210;-73
2021/04/03 00:21:54;;;;;;;11.38;8.20;;;;;;;9.11;73.38;100855.16;1749703;82;21328;-71
2021/04/03 00:24:27;;;;;;;15.70;8.03;;;;;;;9.12;73.40;100856.84;1749638;82;21225;-72
2021/04/03 00:26:59;;;;;;;13.58;8.93;;;;;;;9.09;73.48;100858.73;1749707;82;21210;-72
2021/04/03 00:29:32;;;;;;;13.85;8.05;;;;;;;9.10;73.51;100856.26;1749597;82;21202;-71
2021/04/03 00:32:06;;;;;;;12.33;7.55;;;;;;;9.10;73.38;100856.26;1749748;82;21324;-69
2021/04/03 00:34:38;;;;;;;10.95;7.22;;;;;;;9.12;73.40;100856.84;1749566;82;21175;-72
2021/04/03 00:37:11;;;;;;;13.18;7.97;;;;;;;9.12;73.31;100856.84;1749615;80;21198;-71
2021/04/03 00:39:44;;;;;;;11.17;7.60;;;;;;;9.08;73.21;100852.05;1749669;82;21186;-72
2021/04/03 00:42:19;;;;;;;11.08;7.75;;;;;;;9.04;73.22;100847.55;1749418;82;21209;-74
2021/04/03 00:44:51;;;;;;;10.80;7.22;;;;;;;9.03;73.26;100841.72;1749612;82;21253;-72
2021/04/03 00:47:24;;;;;;;10.45;6.30;;;;;;;9.02;73.21;100847.50;1749394;82;21230;-72
2021/04/03 00:49:58;;;;;;;11.60;7.35;;;;;;;8.99;73.22;100850.22;1749857;82;21230;-73
2021/04/03 00:52:32;;;;;;;16.05;7.12;;;;;;;8.97;73.15;100848.25;1749660;82;21431;-71
2021/04/03 00:55:08;;;;;;;10.10;6.90;;;;;;;8.97;73.17;100851.02;1749787;82;21171;-71
2021/04/03 00:57:41;;;;;;;10.82;7.67;;;;;;;8.97;73.14;100856.55;1759631;81;21403;-74
2021/04/03 01:00:15;;;;;;;11.53;8.23;;;;;;;8.96;73.02;100856.79;1772011;81;21345;-72
2021/04/03 01:02:49;;;;;;;11.05;7.17;;;;;;;8.91;72.92;100857.53;1772091;81;21815;-69
2021/04/03 01:05:26;;;;;;;11.43;6.70;;;;;;;8.87;72.91;100856.89;1772040;81;21798;-74
2021/04/03 01:08:00;;;;;;;11.33;7.08;;;;;;;8.84;73.04;100857.37;1772177;81;21242;-75
2021/04/03 01:10:36;;;;;;;9.80;6.58;;;;;;;8.86;73.20;100852.42;1771876;81;21332;-70
2021/04/03 01:13:31;;;;;;;13.00;7.05;;;;;;;8.86;73.03;100856.04;1771797;81;21755;-72
2021/04/03 01:16:29;;;;;;;10.68;6.03;;;;;;;8.83;73.11;100852.92;1749200;81;21341;-71
2021/04/03 01:19:42;;;;;;;8.90;5.78;;;;;;;8.77;73.03;100843.69;1771936;81;21182;-71
2021/04/03 01:22:42;;;;;;;10.65;5.90;;;;;;;8.70;73.04;100842.95;1765856;81;21459;-70
2021/04/03 01:25:46;;;;;;;9.18;6.05;;;;;;;8.66;73.24;100847.32;1771805;81;21178;-72
2021/04/03 01:28:38;;;;;;;9.10;5.60;;;;;;;8.66;73.30;100863.92;1771836;81;21327;-72
2021/04/03 01:31:12;;;;;;;11.43;6.28;;;;;;;8.63;73.33;100853.33;1771688;81;21231;-71
2021/04/03 01:33:46;;;;;;;8.53;6.08;;;;;;;8.61;73.32;100854.13;1772049;81;21388;-72
2021/04/03 01:36:23;;;;;;;8.43;5.95;;;;;;;8.56;73.23;100853.19;1772192;81;21198;-73
2021/04/03 01:39:02;;;;;;;6.75;4.90;;;;;;;8.50;73.25;100854.98;1772013;81;21689;-72
2021/04/03 01:41:37;;;;;;;8.15;5.87;;;;;;;8.51;73.42;100861.38;1771772;81;21344;-73
2021/04/03 01:44:11;;;;;;;8.83;6.25;;;;;;;8.51;73.38;100860.81;1772071;81;21368;-72
2021/04/03 01:46:44;;;;;;;9.73;6.33;;;;;;;8.51;73.47;100860.81;1771871;81;21843;-72
2021/04/03 01:49:20;;;;;;;11.95;6.25;;;;;;;8.52;73.37;100861.66;1772029;81;21407;-74
2021/04/03 01:51:51;;;;;;;8.20;5.87;;;;;;;8.51;73.18;100866.34;1771884;81;21341;-71
2021/04/03 01:54:27;;;;;;;8.28;5.92;;;;;;;8.47;73.09;100862.40;1771845;81;21330;-74
2021/04/03 01:57:02;;;;;;;12.25;6.10;;;;;;;8.45;73.10;100862.34;1771871;81;21344;-71
2021/04/03 01:59:39;;;;;;;9.98;6.47;;;;;;;8.41;73.16;100862.52;1767432;81;21459;-72
2021/04/03 02:02:13;;;;;;;11.05;5.92;;;;;;;8.40;73.08;100870.52;1771737;81;21376;-71
2021/04/03 02:04:46;;;;;;;9.43;6.33;;;;;;;8.37;72.95;100880.67;1771866;81;21406;-75
2021/04/03 02:07:21;;;;;;;11.35;6.65;;;;;;;8.32;72.85;100880.02;1771786;81;21380;-73
2021/04/03 02:09:55;;;;;;;8.58;6.05;;;;;;;8.29;72.83;100889.34;1771696;81;22136;-72
2021/04/03 02:12:40;;;;;;;9.08;5.62;;;;;;;8.27;72.80;100896.48;1771000;81;21287;-76
2021/04/03 02:15:14;;;;;;;8.48;5.60;;;;;;;8.27;72.80;100896.48;1765985;81;21377;-71
2021/04/03 02:17:49;;;;;;;9.28;5.90;;;;;;;8.26;72.87;100896.20;1772215;81;21329;-72
2021/04/03 02:20:22;;;;;;;9.23;6.10;;;;;;;8.23;72.66;100893.92;1771823;81;21231;-73
2021/04/03 02:22:55;;;;;;;11.57;6.40;;;;;;;8.22;72.52;100901.92;1772012;81;21254;-72
2021/04/03 02:25:27;;;;;;;10.68;6.87;;;;;;;8.16;72.48;100892.32;1771821;81;21211;-72
2021/04/03 02:28:01;;;;;;;13.08;7.47;;;;;;;8.08;72.51;100894.07;1771971;81;21376;-72
2021/04/03 02:30:35;;;;;;;15.50;7.75;;;;;;;8.01;72.53;100894.17;1744569;81;21182;-74
2021/04/03 02:33:08;;;;;;;12.28;7.80;;;;;;;7.92;72.68;100890.09;1772179;81;21830;-73
2021/04/03 02:35:41;;;;;;;10.98;6.83;;;;;;;7.84;72.79;100894.56;1771969;81;21385;-72
2021/04/03 02:38:16;;;;;;;12.80;7.90;;;;;;;7.80;72.92;100893.90;1771798;81;21341;-71
2021/04/03 02:40:56;;;;;;;11.12;7.10;;;;;;;7.74;72.89;100890.70;1768294;81;21852;-72
2021/04/03 02:43:51;;;;;;;9.85;6.17;;;;;;;7.65;72.93;100892.97;1772010;81;21345;-72
2021/04/03 02:46:39;;;;;;;10.65;6.25;;;;;;;7.61;73.01;100894.53;1771810;81;21340;-74
2021/04/03 02:49:16;;;;;;;11.63;6.75;;;;;;;7.59;73.11;100895.29;1758484;81;21365;-71
2021/04/03 02:51:53;;;;;;;11.20;6.78;;;;;;;7.56;72.95;100894.92;1771131;81;21253;-72
2021/04/03 02:54:27;;;;;;;12.58;7.17;;;;;;;7.51;73.00;100898.40;1771853;81;21325;-70
2021/04/03 02:57:00;;;;;;;14.33;7.00;;;;;;;7.46;72.95;100909.31;1772070;81;21321;-77
2021/04/03 02:59:36;;;;;;;12.13;6.95;;;;;;;7.40;73.03;100914.39;1763704;81;21218;-73
2021/04/03 03:02:09;;;;;;;18.40;8.13;;;;;;;7.36;73.16;100918.69;1746795;82;21187;-71
2021/04/03 03:04:43;;;;;;;;;;;;;;;7.33;73.25;100921.93;1749409;82;21404;-71
2021/04/03 03:07:16;;;;;;;12.23;7.03;;;;;;;7.31;73.25;100921.86;1747118;82;20539;-71
2021/04/03 03:09:50;;;;;;;10.55;6.60;;;;;;;7.26;73.36;100922.27;1746766;82;21387;-71
2021/04/03 03:12:25;;;;;;;9.78;6.72;;;;;;;7.17;73.32;100921.74;1746748;82;21245;-71
2021/04/03 03:15:00;;;;;;;9.53;6.62;;;;;;;7.10;73.41;100932.03;1746890;80;21336;-70
2021/04/03 03:17:33;;;;;;;9.88;5.58;;;;;;;7.07;73.46;100934.39;1724305;82;21246;-70
2021/04/03 03:20:09;;;;;;;10.63;6.42;;;;;;;7.04;73.55;100937.63;1747183;82;21167;-75
2021/04/03 03:22:43;;;;;;;9.88;6.58;;;;;;;7.00;73.72;100928.11;1746841;82;21411;-74
2021/04/03 03:25:18;;;;;;;13.55;7.28;;;;;;;6.99;73.85;100933.33;1746985;82;21775;-74
2021/04/03 03:27:52;;;;;;;11.43;6.58;;;;;;;7.02;73.85;100938.41;1746814;82;21332;-74
2021/04/03 03:30:26;;;;;;;14.87;6.70;;;;;;;7.07;73.70;100941.28;1746802;82;21336;-71
2021/04/03 03:33:00;;;;;;;12.65;7.20;;;;;;;7.08;73.48;100953.48;1747050;82;21826;-75
2021/04/03 03:35:34;;;;;;;11.30;7.62;;;;;;;7.08;73.50;100956.80;1746999;80;21281;-76
2021/04/03 03:38:07;;;;;;;;;;;;;;;7.05;73.38;100955.87;1749431;80;21210;-77
2021/04/03 03:40:40;;;;;;;17.57;7.78;;;;;;;7.07;73.45;100958.70;1747019;82;20285;-73
2021/04/03 03:43:16;;;;;;;;;;;;;;;7.13;73.44;100958.30;1727071;82;21344;-72
2021/04/03 03:45:49;;;;;;;16.17;7.40;;;;;;;7.15;73.18;100950.66;1746768;82;20182;-71
2021/04/03 03:48:24;;;;;;;17.35;8.13;;;;;;;7.08;73.09;100952.66;1746748;80;21170;-75
2021/04/03 03:50:56;;;;;;;12.93;7.67;;;;;;;7.00;73.30;100952.95;1746992;82;21329;-74
2021/04/03 03:53:29;;;;;;;12.85;6.80;;;;;;;6.94;73.38;100949.21;1747206;82;21694;-70
2021/04/03 03:56:03;;;;;;;10.82;7.15;;;;;;;6.85;73.29;100953.89;1746995;82;21926;-72
2021/04/03 03:58:36;;;;;;;21.23;8.30;;;;;;;6.78;73.57;100948.98;1747102;82;21328;-74
2021/04/03 04:01:09;;;;;;;15.88;7.33;;;;;;;6.73;73.69;100952.41;1759614;81;21508;-73
2021/04/03 04:03:44;;;;;;;14.13;7.28;;;;;;;6.71;73.81;100949.61;1771766;81;21254;-73
2021/04/03 04:06:18;;;;;;;18.37;6.90;;;;;;;6.66;73.89;100937.86;1771804;81;21349;-76
2021/04/03 04:08:52;;;;;;;11.63;7.53;;;;;;;6.66;74.04;100932.89;1772071;81;21807;-76
2021/04/03 04:11:25;;;;;;;17.52;7.83;;;;;;;6.67;74.02;100930.44;1771968;81;21337;-74
2021/04/03 04:14:00;;;;;;;16.17;8.40;;;;;;;6.65;74.04;100927.90;1771519;81;21337;-73
2021/04/03 04:16:44;;;;;;;21.93;9.07;;;;;;;6.66;74.12;100927.38;1771770;81;21242;-74
2021/04/03 04:19:18;;;;;;;23.18;8.15;;;;;;;6.67;74.22;100925.78;1771731;81;21325;-74
2021/04/03 04:21:53;;;;;;;17.15;8.78;;;;;;;6.72;74.26;100937.49;1771880;81;21345;-77
2021/04/03 04:24:26;;;;;;;15.93;8.43;;;;;;;6.76;74.27;100934.56;1771906;81;21834;-74
2021/04/03 04:26:58;;;;;;;11.30;6.80;;;;;;;6.78;74.27;100947.05;1771793;81;21321;-72
2021/04/03 04:29:31;;;;;;;11.03;6.17;;;;;;;6.81;74.29;100945.75;1772017;81;21816;-76
2021/04/03 04:32:05;;;;;;;;;;;;;;;6.86;74.40;100945.39;1774581;81;21321;-72
2021/04/03 04:34:39;;;;;;;12.60;7.87;;;;;;;6.91;74.48;100951.59;1703829;84;20312;-72
2021/04/03 04:37:12;;;;;;;16.17;8.23;;;;;;;6.94;74.50;100950.59;1712044;84;21240;-72
2021/04/03 04:39:46;;;;;;;12.23;7.80;;;;;;;6.99;74.43;100954.89;1732734;83;21351;-75
2021/04/03 04:42:20;;;;;;;15.00;8.28;;;;;;;7.06;74.37;100954.27;1728950;83;21375;-75
2021/04/03 04:44:54;;;;;;;14.35;6.78;;;;;;;7.13;74.16;100948.12;1728755;83;21539;-72
2021/04/03 04:47:28;;;;;;;12.13;6.78;;;;;;;7.23;74.13;100937.38;1732807;83;21390;-72
2021/04/03 04:50:01;;;;;;;16.02;7.62;;;;;;;7.33;73.81;100940.96;1732786;83;21758;-76
2021/04/03 04:52:34;;;;;;;13.83;6.65;;;;;;;7.44;73.73;100953.42;1732828;83;21335;-72
2021/04/03 04:55:08;;;;;;;17.85;7.47;;;;;;;7.55;73.45;100959.02;1732850;83;21248;-72
2021/04/03 04:57:41;;;;;;;13.43;6.58;;;;;;;7.65;73.23;100963.42;1732928;83;21852;-75
2021/04/03 05:00:17;;;;;;;9.60;5.97;;;;;;;7.73;72.86;100960.31;1732844;83;21651;-71
2021/04/03 05:02:52;;;;;;;11.50;5.75;;;;;;;7.90;72.67;100957.18;1726957;83;21197;-72
2021/04/03 05:05:24;;;;;;;11.43;5.50;;;;;;;8.34;72.66;100955.85;1732836;83;21343;-73
2021/04/03 05:07:56;;;;;;;12.33;5.33;;;;;;;8.97;70.91;100952.08;1732669;83;21414;-74
2021/04/03 05:10:31;;;;;;;9.23;6.37;;;;;;;9.62;70.04;100960.34;1732675;83;21395;-70
2021/04/03 05:13:04;;;;;;;11.80;6.12;;;;;;;10.25;68.35;100963.77;1732681;83;21415;-74
2021/04/03 05:15:37;;;;;;;8.70;5.20;;;;;;;10.89;65.60;100956.73;1732814;83;21522;-71
2021/04/03 05:18:10;;;;;;;11.22;5.42;;;;;;;11.46;63.41;100959.42;1732716;83;21343;-71
2021/04/03 05:20:44;;;;;;;9.63;4.80;;;;;;;11.93;61.52;100968.33;1732646;83;21884;-75
2021/04/03 05:23:20;;;;;;;10.32;5.10;;;;;;;12.41;60.23;100973.80;1732709;83;21710;-73
2021/04/03 05:25:52;;;;;;;6.40;4.28;;;;;;;13.17;57.14;100972.41;1732703;83;21202;-72
2021/04/03 05:28:25;;;;;;;5.78;4.12;;;;;;;13.39;55.42;100973.09;1732614;83;21356;-73
2021/04/03 05:30:58;;;;;;;11.53;4.50;;;;;;;13.39;55.42;100973.09;1732630;83;21339;-74
2021/04/03 05:33:31;;;;;;;14.00;4.80;;;;;;;13.61;54.86;100978.75;1732792;83;21394;-71
2021/04/03 05:36:05;;;;;;;6.00;3.77;;;;;;;13.83;54.34;100977.15;1732648;83;21209;-72
2021/04/03 05:38:38;;;;;;;6.42;4.20;;;;;;;14.07;53.17;100976.38;1732737;83;21351;-72
2021/04/03 05:41:11;;;;;;;7.10;4.10;;;;;;;14.20;52.28;100982.86;1732681;83;21388;-73
2021/04/03 05:43:44;;;;;;;8.45;4.33;;;;;;;14.28;51.94;100992.08;1732711;83;21256;-72
2021/04/03 05:46:21;;;;;;;9.38;4.60;;;;;;;14.36;51.46;100987.33;1730260;82;21706;-70
2021/04/03 05:48:54;;;;;;;7.28;3.95;;;;;;;14.44;51.35;100984.00;1732820;83;21399;-72
2021/04/03 05:51:27;;;;;;;7.67;4.77;;;;;;;14.60;51.47;100992.64;1732851;83;21880;-70
2021/04/03 05:54:02;;;;;;;9.40;4.22;;;;;;;14.77;50.33;101002.98;1732817;83;21881;-72
2021/04/03 05:56:35;;;;;;;5.67;4.30;;;;;;;14.83;49.93;101010.25;1732670;83;21411;-70
2021/04/03 05:59:07;;;;;;;9.05;4.22;;;;;;;14.85;49.31;101012.20;1735693;82;21178;-70
2021/04/03 06:01:40;;;;;;;7.33;3.90;;;;;;;14.95;49.64;101023.93;1762049;81;21245;-73
2021/04/03 06:04:15;;;;;;;8.78;4.42;;;;;;;15.07;49.51;101018.33;1759858;81;21655;-72
2021/04/03 06:06:49;;;;;;;7.50;4.15;;;;;;;15.25;49.63;101029.48;1758419;81;21867;-76
2021/04/03 06:09:23;;;;;;;5.97;4.12;;;;;;;15.44;48.31;101027.78;1749321;81;21186;-75
2021/04/03 06:11:56;;;;;;;9.33;4.60;;;;;;;15.60;49.08;101028.88;1729999;83;21427;-75
2021/04/03 06:14:29;;;;;;;7.45;4.28;;;;;;;15.75;47.80;101034.40;1741457;81;21708;-76
2021/04/03 06:17:04;;;;;;;9.88;4.30;;;;;;;15.92;47.53;101041.89;1682496;83;21221;-74
2021/04/03 06:19:36;;;;;;;;;;;;;;;16.04;47.07;101037.61;1744275;81;21319;-74
2021/04/03 06:22:08;;;;;;;7.25;4.00;;;;;;;16.23;47.32;101037.80;1762858;81;20223;-74
2021/04/03 06:24:44;;;;;;;4.85;3.52;;;;;;;16.36;45.76;101044.16;1768225;81;21222;-75
2021/04/03 06:27:21;;;;;;;6.10;3.67;;;;;;;16.50;45.40;101050.27;1768910;81;21341;-76
2021/04/03 06:29:56;;;;;;;6.15;4.45;;;;;;;16.64;46.28;101050.46;1718784;82;21214;-76
2021/04/03 06:32:32;;;;;;;8.13;4.40;;;;;;;16.76;45.39;101057.36;1765274;81;21272;-75
2021/04/03 06:35:04;;;;;;;7.35;4.12;;;;;;;16.89;45.12;101060.08;1762833;81;21174;-74
2021/04/03 06:37:38;;;;;;;9.48;3.98;;;;;;;16.91;45.32;101051.64;1757333;81;21233;-74
2021/04/03 06:40:13;;;;;;;7.25;4.00;;;;;;;17.04;45.04;101050.11;1744573;81;21206;-74
2021/04/03 06:42:57;;;;;;;10.08;4.67;;;;;;;17.20;42.85;101047.44;1737872;82;21238;-75
2021/04/03 06:45:37;;;;;;;9.23;4.50;;;;;;;17.19;42.21;101048.58;1738087;82;21336;-72
2021/04/03 06:48:10;;;;;;;;;;;;;;;17.17;42.37;101057.84;1740494;82;21198;-72
2021/04/03 06:50:46;;;;;;;8.40;3.98;;;;;;;17.07;42.60;101056.55;1738149;82;20189;-75
2021/04/03 06:53:20;;;;;;;8.38;4.85;;;;;;;17.07;42.60;101056.55;1737875;82;21221;-73
2021/04/03 06:55:53;;;;;;;9.88;4.10;;;;;;;16.97;42.20;101058.03;1737870;82;21210;-77
2021/04/03 06:58:25;;;;;;;6.80;3.67;;;;;;;16.79;42.12;101057.34;1738175;82;21259;-75
2021/04/03 07:00:58;;;;;;;8.73;4.62;;;;;;;16.70;42.81;101052.09;1724613;81;21175;-73
2021/04/03 07:03:30;;;;;;;10.28;6.05;;;;;;;16.65;42.66;101057.16;1760147;80;21254;-70
2021/04/03 07:06:03;;;;;;;;;;;;;;;16.54;42.61;101063.98;1768445;80;21373;-72
2021/04/03 07:08:38;;;;;;;12.20;4.30;;;;;;;16.44;42.98;101066.84;1763860;80;20241;-72
2021/04/03 07:11:10;;;;;;;18.75;5.22;;;;;;;16.31;43.11;101077.27;1751502;81;21890;-71
2021/04/03 07:13:47;;;;;;;10.68;5.72;;;;;;;16.15;43.15;101081.27;1746701;82;21325;-73
2021/04/03 07:16:21;;;;;;;13.18;5.80;;;;;;;15.96;43.50;101078.56;1751947;80;21342;-71
2021/04/03 07:18:56;;;;;;;7.60;4.35;;;;;;;15.64;43.97;101080.93;1768701;81;21463;-71
2021/04/03 07:21:30;;;;;;;6.28;4.37;;;;;;;15.40;44.79;101088.27;1762071;80;21236;-70
2021/04/03 07:24:03;;;;;;;6.58;3.80;;;;;;;15.16;44.99;101084.34;1762727;81;21328;-70
2021/04/03 07:26:35;;;;;;;6.35;3.58;;;;;;;14.93;46.42;101076.52;1765207;80;21335;-73
2021/04/03 07:29:08;;;;;;;10.60;3.75;;;;;;;14.81;46.45;101082.94;1736611;81;21329;-71
2021/04/03 07:31:46;;;;;;;7.03;3.75;;;;;;;14.71;46.22;101069.80;1763293;81;21340;-71
2021/04/03 07:34:17;;;;;;;10.15;4.08;;;;;;;14.61;46.29;101064.19;1759124;81;21839;-72
2021/04/03 07:36:51;;;;;;;10.95;4.10;;;;;;;14.56;46.79;101060.56;1768269;81;21335;-73
2021/04/03 07:39:38;;;;;;;5.42;3.37;;;;;;;14.54;48.01;101059.43;1768669;81;21316;-71
2021/04/03 07:42:15;;;;;;;4.55;3.30;;;;;;;14.59;47.79;101062.78;1766894;80;21190;-74
2021/04/03 07:44:48;;;;;;;6.75;3.47;;;;;;;14.52;46.63;101062.22;1747700;81;21819;-71
2021/04/03 07:47:22;;;;;;;7.58;3.20;;;;;;;14.44;47.02;101062.23;1768349;81;21687;-72
2021/04/03 07:49:56;;;;;;;6.28;3.30;;;;;;;14.36;47.43;101067.52;1771552;81;21322;-72
2021/04/03 07:52:55;;;;;;;5.25;3.70;;;;;;;14.33;47.72;101064.72;1771398;81;21360;-73
2021/04/03 07:55:40;;;;;;;4.78;3.05;;;;;;;14.35;48.10;101057.47;1760924;81;21346;-72
2021/04/03 07:58:26;;;;;;;5.90;3.42;;;;;;;14.43;48.16;101068.91;1762374;81;21163;-71
2021/04/03 08:01:03;;;;;;;13.45;3.42;;;;;;;14.42;46.69;101068.63;1777462;81;21317;-82
2021/04/03 08:03:36;;;;;;;6.20;3.55;;;;;;;14.28;46.70;101071.69;1777635;81;21372;-75
2021/04/03 08:06:10;;;;;;;4.12;2.90;;;;;;;14.11;47.19;101075.23;1777733;80;21234;-73
2021/04/03 08:08:45;;;;;;;10.28;3.90;;;;;;;13.92;46.94;101078.23;1775503;81;21808;-76
2021/04/03 08:11:19;;;;;;;6.55;3.20;;;;;;;13.73;47.99;101063.08;1710405;84;21212;-72
2021/04/03 08:13:53;;;;;;;8.03;3.47;;;;;;;13.72;48.80;101065.59;1774137;81;21726;-73
2021/04/03 08:16:29;;;;;;;9.58;3.20;;;;;;;13.76;48.76;101080.66;1766769;81;21456;-72
2021/04/03 08:19:02;;;;;;;3.83;2.85;;;;;;;13.79;47.90;101070.91;1737632;82;21245;-80
2021/04/03 08:21:47;;;;;;;9.50;3.62;;;;;;;13.79;47.90;101070.91;1706056;82;21901;-73
2021/04/03 08:24:23;;;;;;;6.30;2.87;;;;;;;13.83;48.57;101073.45;1712941;82;21778;-72
2021/04/03 08:26:57;;;;;;;9.63;2.50;;;;;;;13.88;44.95;101074.30;1722568;82;21249;-71
2021/04/03 08:29:36;;;;;;;4.85;2.65;;;;;;;13.86;44.88;101079.86;1694900;83;21451;-72
2021/04/03 08:32:09;;;;;;;3.95;2.65;;;;;;;13.91;44.92;101086.88;1713634;84;21344;-71
2021/04/03 08:34:45;;;;;;;8.53;1.87;;;;;;;13.98;44.27;101086.91;1718637;82;21329;-68
2021/04/03 08:37:18;;;;;;;5.45;2.27;;;;;;;14.05;43.01;101090.28;1696890;84;21333;-70
2021/04/03 08:39:52;;;;;;;7.78;2.12;;;;;;;14.10;42.30;101086.66;1735755;82;21959;-67
2021/04/03 08:42:24;;;;;;;3.12;1.98;;;;;;;14.13;41.67;101093.94;1738861;82;21187;-72
2021/04/03 08:44:59;;;;;;;1.92;1.27;;;;;;;14.15;40.97;101088.08;1726242;81;21217;-70
2021/04/03 08:47:32;;;;;;;2.40;1.77;;;;;;;14.11;38.53;101097.56;1711542;82;21688;-70
2021/04/03 08:50:07;;;;;;;9.83;2.02;;;;;;;14.02;39.58;101102.56;1766095;81;21791;-70
2021/04/03 08:52:41;;;;;;;3.40;2.20;;;;;;;13.97;39.88;101099.20;1739518;81;21490;-73
2021/04/03 08:55:17;;;;;;;6.95;2.42;;;;;;;13.94;40.77;101096.12;1765307;81;21321;-70
2021/04/03 08:57:50;;;;;;;6.22;1.77;;;;;;;13.95;40.96;101101.98;1760813;81;21325;-70
2021/04/03 09:00:23;;;;;;;3.92;2.02;;;;;;;13.96;41.46;101103.11;1739062;81;21328;-68
2021/04/03 09:02:56;;;;;;;7.92;1.90;;;;;;;13.93;39.81;101109.22;1768778;81;21348;-70
2021/04/03 09:05:29;;;;;;;2.67;1.87;;;;;;;13.96;40.99;101109.23;1777918;80;21420;-70
2021/04/03 09:08:03;;;;;;;8.00;2.22;;;;;;;14.01;41.17;101091.97;1773920;80;21288;-70
2021/04/03 09:10:39;;;;;;;7.35;2.00;;;;;;;14.08;40.50;101098.13;1772841;80;21321;-69
2021/04/03 09:13:15;;;;;;;2.85;1.77;;;;;;;14.17;40.76;101097.87;1772044;80;21225;-70
2021/04/03 09:15:49;;;;;;;2.77;1.72;;;;;;;14.23;40.10;101096.80;1774069;80;21744;-68
2021/04/03 09:18:22;;;;;;;4.08;1.90;;;;;;;14.24;40.37;101099.88;1772948;80;21344;-69
2021/04/03 09:20:56;;;;;;;9.43;2.85;;;;;;;14.30;40.52;101108.55;1737970;80;21336;-72
2021/04/03 09:23:30;;;;;;;4.28;1.87;;;;;;;14.30;40.52;101108.55;1779389;80;21822;-68
2021/04/03 09:26:04;;;;;;;5.40;1.80;;;;;;;14.28;39.55;101108.00;1779297;80;21194;-81
2021/04/03 09:28:44;;;;;;;13.60;2.45;;;;;;;14.27;39.75;101107.72;1778916;80;21186;-73
2021/04/03 09:31:17;;;;;;;4.75;2.00;;;;;;;14.25;39.50;101083.39;1778991;80;21356;-80
2021/04/03 09:33:51;;;;;;;4.65;1.62;;;;;;;14.25;39.50;101083.39;1779267;80;21822;-68
2021/04/03 09:36:24;;;;;;;5.17;1.98;;;;;;;14.22;39.78;101076.97;1779024;80;21340;-68
2021/04/03 09:38:57;;;;;;;3.63;1.90;;;;;;;14.12;37.51;101065.73;1779409;80;21190;-73
2021/04/03 09:41:32;;;;;;;2.67;1.30;;;;;;;13.73;37.21;101064.48;1776358;80;22143;-77
2021/04/03 09:44:04;;;;;;;2.85;1.82;;;;;;;13.73;37.21;101092.38;1773810;80;21381;-78
2021/04/03 09:46:37;;;;;;;4.12;2.17;;;;;;;13.66;37.36;101080.63;1771085;80;21329;-77
2021/04/03 09:49:13;;;;;;;2.08;1.50;;;;;;;13.66;37.96;101077.84;1777327;80;21700;-87
2021/04/03 09:51:46;;;;;;;4.67;1.77;;;;;;;13.66;37.96;101077.84;1772727;80;21289;-82
2021/04/03 09:54:19;;;;;;;3.10;1.62;;;;;;;13.66;38.11;101084.81;1773645;80;21408;-74
2021/04/03 09:56:52;;;;;;;2.62;1.42;;;;;;;13.70;38.50;101079.53;1775130;80;21497;-74
2021/04/03 09:59:24;;;;;;;4.72;1.90;;;;;;;13.72;37.46;101076.76;1772026;80;21178;-76
2021/04/03 10:01:59;;;;;;;1.87;1.47;;;;;;;13.71;38.06;101089.03;1772374;80;21388;-73
2021/04/03 10:04:32;;;;;;;7.00;2.45;;;;;;;13.68;37.29;101095.72;1775307;80;21329;-75
2021/04/03 10:07:05;;;;;;;6.05;4.58;;;;;;;13.64;37.81;101102.36;1769783;80;21182;-73
2021/04/03 10:09:38;;;;;;;4.42;2.72;;;;;;;13.68;38.43;101104.91;1762425;81;21860;-72
2021/04/03 10:12:12;;;;;;;3.87;2.20;;;;;;;13.71;37.75;101099.34;1764442;81;21304;-73
2021/04/03 10:14:48;;;;;;;5.40;1.92;;;;;;;13.75;37.79;101120.03;1761234;81;21186;-75
2021/04/03 10:17:22;;;;;;;2.80;1.65;;;;;;;13.75;37.87;101122.82;1763316;81;21407;-72
2021/04/03 10:19:59;;;;;;;3.77;1.72;;;;;;;13.72;38.03;101127.53;1762486;81;21684;-72
2021/04/03 10:22:31;;;;;;;3.10;1.32;;;;;;;13.72;38.74;101110.25;1770604;81;21395;-74
2021/04/03 10:25:05;;;;;;;5.15;2.58;;;;;;;13.77;38.60;101126.17;1765629;81;21340;-73
2021/04/03 10:27:37;;;;;;;3.30;2.55;;;;;;;13.80;38.83;101127.86;1765561;81;21316;-74
2021/04/03 10:30:11;;;;;;;4.10;1.93;;;;;;;13.88;39.12;101126.52;1767301;81;21219;-75
2021/04/03 10:32:44;;;;;;;5.15;2.10;;;;;;;14.05;36.99;101116.81;1763209;81;21317;-73
2021/04/03 10:35:17;;;;;;;4.35;1.85;;;;;;;14.05;36.99;101116.81;1770161;81;21221;-76
2021/04/03 10:37:49;;;;;;;2.83;1.70;;;;;;;14.06;37.31;101128.26;1771727;81;21202;-74
2021/04/03 10:40:22;;;;;;;5.55;2.12;;;;;;;14.06;37.31;101128.26;1761161;81;21716;-75
2021/04/03 10:42:54;;;;;;;8.58;2.20;;;;;;;14.09;37.80;101124.09;1768164;81;21818;-77
2021/04/03 10:45:28;;;;;;;8.83;2.10;;;;;;;14.18;38.31;101127.47;1766516;81;21333;-76
2021/04/03 10:48:01;;;;;;;4.28;2.00;;;;;;;14.27;38.43;101122.23;1759159;81;21401;-71
2021/04/03 10:50:33;;;;;;;4.40;2.02;;;;;;;14.35;37.35;101124.52;1768329;81;21396;-73
2021/04/03 10:53:06;;;;;;;6.05;2.00;;;;;;;14.36;36.57;101126.19;1773348;81;21209;-76
2021/04/03 10:55:39;;;;;;;4.67;2.22;;;;;;;14.33;36.57;101122.53;1767833;81;21183;-73
2021/04/03 10:58:16;;;;;;;3.22;1.90;;;;;;;14.27;36.89;101116.10;1765341;81;21831;-72
2021/04/03 11:00:50;;;;;;;4.17;2.10;;;;;;;14.27;36.89;101116.10;1770304;80;21858;-74
2021/04/03 11:03:23;;;;;;;5.92;2.20;;;;;;;14.31;35.92;101124.20;1766891;81;21410;-73
2021/04/03 11:05:55;;;;;;;8.20;3.03;;;;;;;14.29;35.35;101112.47;1760595;81;21372;-72
2021/04/03 11:08:30;;;;;;;3.85;2.17;;;;;;;14.25;36.02;101102.95;1774793;80;21285;-72
2021/04/03 11:11:03;;;;;;;4.12;2.00;;;;;;;14.25;36.19;101107.13;1768361;80;21450;-73
2021/04/03 11:13:37;;;;;;;7.50;2.42;;;;;;;14.29;35.89;101118.05;1764879;80;21238;-72
2021/04/03 11:16:09;;;;;;;2.43;1.60;;;;;;;14.34;36.34;101111.63;1778018;80;21407;-73
2021/04/03 11:18:42;;;;;;;3.62;2.08;;;;;;;14.37;35.13;101106.33;1761774;80;21265;-73
2021/04/03 11:21:15;;;;;;;8.80;2.27;;;;;;;14.37;35.13;101106.33;1738030;80;21198;-73
2021/04/03 11:23:48;;;;;;;2.47;1.60;;;;;;;14.34;34.55;101111.09;1746305;80;21431;-73
2021/04/03 11:26:21;;;;;;;3.83;2.30;;;;;;;14.30;33.79;101104.94;1761891;80;21881;-71
2021/04/03 11:28:53;;;;;;;3.98;1.72;;;;;;;14.25;34.03;101102.95;1751376;80;21234;-73
2021/04/03 11:31:27;;;;;;;4.75;2.52;;;;;;;14.21;34.16;101110.22;1752736;80;21178;-71
2021/04/03 11:34:00;;;;;;;5.95;2.25;;;;;;;14.17;34.31;101098.45;1759691;80;21289;-72
2021/04/03 11:36:33;;;;;;;5.72;1.90;;;;;;;14.15;34.56;101102.90;1760698;80;21222;-71
2021/04/03 11:39:07;;;;;;;5.25;2.00;;;;;;;14.15;34.35;101097.31;1768689;80;21229;-71
2021/04/03 11:41:41;;;;;;;3.30;1.75;;;;;;;14.16;35.22;101092.55;1735366;80;21854;-74
2021/04/03 11:44:13;;;;;;;6.72;2.00;;;;;;;14.19;35.22;101085.89;1718812;82;21256;-73
2021/04/03 11:46:46;;;;;;;6.47;2.75;;;;;;;14.21;34.87;101086.47;1693011;83;21224;-72
2021/04/03 11:49:19;;;;;;;3.70;2.02;;;;;;;14.20;34.42;101080.61;1725372;83;21344;-71
2021/04/03 11:51:52;;;;;;;6.17;2.70;;;;;;;14.19;34.99;101081.70;1725430;83;21351;-72
2021/04/03 11:54:25;;;;;;;3.98;2.27;;;;;;;14.24;33.89;101088.70;1725648;83;21356;-72
2021/04/03 11:56:57;;;;;;;8.57;2.73;;;;;;;14.19;33.89;101082.28;1693235;83;21267;-73
2021/04/03 11:59:31;;;;;;;5.65;2.15;;;;;;;14.09;33.98;101088.63;1725363;83;21225;-73
2021/04/03 12:02:04;;;;;;;7.60;2.00;;;;;;;13.98;33.87;101084.66;1725634;83;21336;-72